Time;durP1;ratioP1;P1;durP2;ratioP2;P2;SDS_P1;SDS_P2;PMS_P1;PMS_P2;Temp;Humidity;BMP_temperature;BMP_pressure;BME280_temperature;BME280_humidity;BME280_pressure;Samples;Min_cycle;Max_cycle;Signal;HPM_P1;HPM_P2
2023/07/06 00:00:38;;;;;;;33.08;24.92;;;22.40;99.90;;;;;;5051455;28;20025;-79
2023/07/06 00:03:03;;;;;;;38.60;24.83;;;22.40;99.90;;;;;;5050477;28;20420;-79
2023/07/06 00:05:29;;;;;;;31.73;24.92;;;22.40;99.90;;;;;;5041003;28;20028;-79
2023/07/06 00:07:56;;;;;;;46.03;26.55;;;22.40;99.90;;;;;;5042712;28;20027;-79
2023/07/06 00:10:23;;;;;;;38.10;25.73;;;22.40;99.90;;;;;;5034158;28;20366;-79
2023/07/06 00:12:49;;;;;;;36.17;25.45;;;22.40;99.90;;;;;;5041563;28;20451;-79
2023/07/06 00:15:15;;;;;;;34.63;25.35;;;22.40;99.90;;;;;;5033555;28;20033;-79
2023/07/06 00:17:41;;;;;;;37.17;26.10;;;22.30;99.90;;;;;;5045630;28;20032;-79
2023/07/06 00:20:10;;;;;;;31.58;25.45;;;22.30;99.90;;;;;;5053583;28;20028;-79
2023/07/06 00:22:36;;;;;;;32.05;25.42;;;22.20;99.90;;;;;;5054300;28;20421;-79
2023/07/06 00:25:03;;;;;;;36.47;25.70;;;22.20;99.90;;;;;;5053465;28;20032;-79
2023/07/06 00:27:29;;;;;;;36.70;26.58;;;22.10;99.90;;;;;;5053832;28;20479;-79
2023/07/06 00:30:07;;;;;;;36.63;27.13;;;22.10;99.90;;;;;;5034117;28;20032;-79
2023/07/06 00:32:33;;;;;;;38.30;26.73;;;22.00;99.90;;;;;;5054748;28;20170;-79
2023/07/06 00:35:00;;;;;;;37.90;26.88;;;22.00;99.90;;;;;;5053017;28;20474;-79
2023/07/06 00:37:26;;;;;;;36.33;26.33;;;22.00;99.90;;;;;;5038010;28;20025;-79
2023/07/06 00:39:53;;;;;;;43.50;26.65;;;22.00;99.90;;;;;;5047919;28;20108;-79
2023/07/06 00:42:20;;;;;;;45.75;25.67;;;22.00;99.90;;;;;;5053357;28;20029;-79
2023/07/06 00:44:58;;;;;;;36.10;25.95;;;21.90;99.90;;;;;;5052943;28;20035;-79
2023/07/06 00:47:51;;;;;;;40.17;26.63;;;21.80;99.90;;;;;;5053816;28;20033;-79
2023/07/06 00:50:21;;;;;;;37.35;26.02;;;21.70;99.90;;;;;;5054236;28;20065;-79
2023/07/06 00:52:59;;;;;;;41.97;26.77;;;21.80;99.90;;;;;;5054785;28;20120;-79
2023/07/06 00:55:36;;;;;;;37.97;26.05;;;21.70;99.90;;;;;;5052812;28;20079;-79
2023/07/06 00:58:24;;;;;;;42.20;25.75;;;21.70;99.90;;;;;;5054032;28;20028;-79
2023/07/06 01:00:57;;;;;;;33.45;25.33;;;21.70;99.90;;;;;;5052783;28;20443;-79
2023/07/06 01:03:23;;;;;;;36.85;26.13;;;21.60;99.90;;;;;;5052754;28;20462;-79
2023/07/06 01:05:52;;;;;;;36.63;26.17;;;21.60;99.90;;;;;;5038446;28;20029;-79
2023/07/06 01:08:20;;;;;;;36.55;26.42;;;21.60;99.90;;;;;;5049561;28;20029;-79
2023/07/06 01:10:48;;;;;;;37.42;26.67;;;21.60;99.90;;;;;;5053690;28;20393;-79
2023/07/06 01:13:14;;;;;;;36.90;26.85;;;21.60;99.90;;;;;;5033692;28;20029;-79
2023/07/06 01:16:01;;;;;;;34.70;26.38;;;21.70;99.90;;;;;;5034241;28;20026;-79
2023/07/06 01:18:36;;;;;;;34.63;26.02;;;21.70;99.90;;;;;;5034199;28;20033;-79
2023/07/06 01:21:28;;;;;;;41.50;27.15;;;21.60;99.90;;;;;;5033059;28;20071;-79
2023/07/06 01:24:14;;;;;;;;;;;21.60;99.90;;;;;;5030365;28;20021;-79
2023/07/06 01:26:48;;;;;;;37.53;26.80;;;21.60;99.90;;;;;;5036448;28;20452;-79
2023/07/06 01:29:44;;;;;;;38.78;27.42;;;21.60;99.90;;;;;;5033052;28;20049;-79
2023/07/06 01:32:16;;;;;;;41.15;27.35;;;21.60;99.90;;;;;;5034736;28;20032;-79
2023/07/06 01:34:58;;;;;;;39.08;26.92;;;21.60;99.90;;;;;;5033656;28;20025;-79
2023/07/06 01:37:32;;;;;;;42.22;28.35;;;21.60;99.90;;;;;;5034047;28;20033;-79
2023/07/06 01:39:58;;;;;;;45.83;29.00;;;21.60;99.90;;;;;;5032357;28;20108;-78
2023/07/06 01:42:35;;;;;;;41.55;28.98;;;21.50;99.90;;;;;;5034282;28;20112;-79
2023/07/06 01:45:06;;;;;;;43.83;29.63;;;21.40;99.90;;;;;;5031823;28;20026;-79
2023/07/06 01:47:39;;;;;;;37.55;28.92;;;21.50;99.90;;;;;;5033359;28;20017;-79
2023/07/06 01:50:09;;;;;;;40.05;29.67;;;21.50;99.90;;;;;;5035319;28;20029;-79
2023/07/06 01:52:43;;;;;;;38.28;27.58;;;21.50;99.90;;;;;;5035386;28;20052;-79
2023/07/06 01:55:30;;;;;;;41.70;28.13;;;21.50;99.90;;;;;;5033564;28;20021;-79
2023/07/06 01:58:23;;;;;;;40.03;28.90;;;21.50;99.90;;;;;;5032504;28;20025;-79
2023/07/06 02:01:01;;;;;;;39.38;28.33;;;21.50;99.90;;;;;;5047568;28;20112;-79
2023/07/06 02:03:28;;;;;;;45.63;28.10;;;;;;;;;;5040458;28;20021;-79
2023/07/06 02:05:54;;;;;;;42.03;27.77;;;21.60;99.90;;;;;;5037239;28;20098;-79
2023/07/06 02:08:20;;;;;;;38.15;27.40;;;21.60;99.90;;;;;;5036019;28;20451;-79
2023/07/06 02:10:47;;;;;;;40.90;28.63;;;21.60;99.90;;;;;;5034747;28;20017;-79
2023/07/06 02:13:13;;;;;;;36.72;26.73;;;21.60;99.90;;;;;;5032824;28;20087;-79
2023/07/06 02:15:40;;;;;;;41.28;27.98;;;21.60;99.90;;;;;;5037868;28;20029;-79
2023/07/06 02:18:07;;;;;;;41.70;28.15;;;21.50;99.90;;;;;;5036190;28;20371;-79
2023/07/06 02:20:34;;;;;;;42.15;28.98;;;21.50;99.90;;;;;;5037911;28;20021;-79
2023/07/06 02:23:00;;;;;;;39.63;27.05;;;21.50;99.90;;;;;;5039401;28;20021;-79
2023/07/06 02:25:26;;;;;;;36.83;27.17;;;21.50;99.90;;;;;;5036935;28;20029;-79
2023/07/06 02:27:52;;;;;;;41.30;28.20;;;21.50;99.90;;;;;;5038239;28;20025;-79
2023/07/06 02:30:18;;;;;;;41.47;27.83;;;21.40;99.90;;;;;;5035013;28;20041;-79
2023/07/06 02:32:43;;;;;;;38.75;27.17;;;21.40;99.90;;;;;;5036098;28;20088;-79
2023/07/06 02:35:10;;;;;;;37.58;28.25;;;21.30;99.90;;;;;;5042605;28;20846;-79
2023/07/06 02:37:38;;;;;;;43.05;29.25;;;21.30;99.90;;;;;;5041726;28;20112;-79
2023/07/06 02:40:10;;;;;;;38.38;27.88;;;21.30;99.90;;;;;;5033394;28;20108;-79
2023/07/06 02:42:42;;;;;;;42.33;29.35;;;21.20;99.90;;;;;;5042296;28;20033;-79
2023/07/06 02:45:09;;;;;;;39.08;28.60;;;21.10;99.90;;;;;;5035764;28;20049;-78
2023/07/06 02:47:36;;;;;;;40.13;29.90;;;21.10;99.90;;;;;;5037817;28;20013;-79
2023/07/06 02:50:04;;;;;;;49.83;28.63;;;21.10;99.90;;;;;;5036878;28;20032;-79
2023/07/06 02:52:29;;;;;;;38.95;27.40;;;21.00;99.90;;;;;;5039845;28;20524;-79
2023/07/06 02:54:55;;;;;;;37.55;27.77;;;21.00;99.90;;;;;;5039988;28;20152;-79
2023/07/06 02:57:21;;;;;;;40.00;28.15;;;20.90;99.90;;;;;;5037196;28;20033;-79
2023/07/06 02:59:47;;;;;;;38.30;28.05;;;20.90;99.90;;;;;;5043064;28;20110;-78
2023/07/06 03:02:13;;;;;;;44.97;28.55;;;20.90;99.90;;;;;;5050563;28;20052;-79
2023/07/06 03:04:38;;;;;;;44.63;28.08;;;20.90;99.90;;;;;;5037488;28;20025;-79
2023/07/06 03:07:05;;;;;;;41.90;28.58;;;21.00;99.90;;;;;;5034421;28;20034;-79
2023/07/06 03:09:32;;;;;;;42.67;28.27;;;21.00;99.90;;;;;;5035499;28;20025;-79
2023/07/06 03:11:58;;;;;;;43.15;28.33;;;21.10;99.90;;;;;;5036714;28;20032;-79
2023/07/06 03:14:25;;;;;;;42.35;26.20;;;21.10;99.90;;;;;;5034401;28;20026;-79
2023/07/06 03:16:53;;;;;;;39.38;28.40;;;21.10;99.90;;;;;;5039283;28;20136;-79
2023/07/06 03:19:20;;;;;;;37.10;27.73;;;21.10;99.90;;;;;;5039189;28;20026;-79
2023/07/06 03:21:46;;;;;;;42.13;29.30;;;21.10;99.90;;;;;;5040493;28;20025;-79
2023/07/06 03:24:12;;;;;;;44.47;29.73;;;21.00;99.90;;;;;;5039679;28;20025;-79
2023/07/06 03:26:40;;;;;;;42.33;30.35;;;20.90;99.90;;;;;;5038354;28;20017;-79
2023/07/06 03:29:07;;;;;;;44.80;28.95;;;21.00;99.90;;;;;;5034524;28;20455;-78
2023/07/06 03:31:33;;;;;;;40.70;28.65;;;20.90;99.90;;;;;;5034306;28;20018;-79
2023/07/06 03:34:06;;;;;;;45.05;27.55;;;20.90;99.90;;;;;;5035000;28;20098;-79
2023/07/06 03:36:34;;;;;;;42.95;28.55;;;20.90;99.90;;;;;;5038178;28;20038;-79
2023/07/06 03:39:01;;;;;;;48.35;30.33;;;20.90;99.90;;;;;;5035713;28;20025;-79
2023/07/06 03:41:27;;;;;;;46.55;30.38;;;20.80;99.90;;;;;;5037947;28;20357;-79
2023/07/06 03:43:56;;;;;;;43.85;30.65;;;20.80;99.90;;;;;;5038417;28;20059;-79
2023/07/06 03:46:34;;;;;;;41.17;30.00;;;20.80;99.90;;;;;;5035563;28;20030;-79
2023/07/06 03:49:03;;;;;;;43.28;30.45;;;20.70;99.90;;;;;;5037185;28;20014;-79
2023/07/06 03:51:30;;;;;;;45.00;30.33;;;20.80;99.90;;;;;;5038681;28;20024;-79
2023/07/06 03:53:56;;;;;;;43.65;30.73;;;20.80;99.90;;;;;;5055343;28;20115;-79
2023/07/06 03:56:27;;;;;;;44.00;31.23;;;20.80;99.90;;;;;;5053996;28;20033;-79
2023/07/06 03:58:56;;;;;;;43.90;28.77;;;20.80;99.90;;;;;;5055363;28;20152;-79
2023/07/06 04:01:23;;;;;;;45.20;30.63;;;20.90;99.90;;;;;;5042538;28;20487;-79
2023/07/06 04:03:49;;;;;;;40.78;30.25;;;20.90;99.90;;;;;;5033278;28;20018;-79
2023/07/06 04:06:15;;;;;;;40.50;29.88;;;20.90;99.90;;;;;;5040732;28;20475;-79
2023/07/06 04:08:41;;;;;;;44.63;29.30;;;20.90;99.90;;;;;;5037778;28;20048;-79
2023/07/06 04:11:07;;;;;;;55.10;30.52;;;21.00;99.90;;;;;;5044376;28;20502;-79
2023/07/06 04:13:32;;;;;;;49.50;30.15;;;20.90;99.90;;;;;;5033453;28;20029;-79
2023/07/06 04:15:58;;;;;;;47.60;30.80;;;20.90;99.90;;;;;;5042491;28;20029;-79
2023/07/06 04:18:24;;;;;;;50.08;30.15;;;20.90;99.90;;;;;;5042982;28;20021;-79
2023/07/06 04:20:52;;;;;;;48.83;30.73;;;20.90;99.90;;;;;;5035868;28;20021;-79
2023/07/06 04:23:18;;;;;;;46.80;29.48;;;20.90;99.90;;;;;;5036871;28;20061;-79
2023/07/06 04:25:44;;;;;;;50.65;35.28;;;21.00;99.90;;;;;;5034344;28;20053;-79
2023/07/06 04:28:14;;;;;;;68.30;42.75;;;21.00;99.90;;;;;;5035337;28;20067;-79
2023/07/06 04:30:44;;;;;;;80.20;45.80;;;;;;;;;;5037863;28;20072;-79
2023/07/06 04:33:16;;;;;;;66.88;38.40;;;21.10;99.90;;;;;;5028423;28;20033;-78
2023/07/06 04:35:42;;;;;;;70.95;40.67;;;21.20;99.90;;;;;;5036648;28;20049;-79
2023/07/06 04:38:11;;;;;;;61.13;40.05;;;21.30;99.90;;;;;;5034526;28;20065;-78
2023/07/06 04:40:43;;;;;;;52.70;36.28;;;;;;;;;;5040245;28;20021;-79
2023/07/06 04:43:10;;;;;;;46.22;29.15;;;21.40;99.90;;;;;;5032579;28;20052;-78
2023/07/06 04:45:36;;;;;;;43.03;28.88;;;21.50;99.90;;;;;;5048560;28;20559;-79
2023/07/06 04:48:06;;;;;;;40.72;28.10;;;21.60;99.90;;;;;;5037067;28;20478;-79
2023/07/06 04:50:32;;;;;;;41.78;29.77;;;;;;;;;;5036586;28;20018;-79
2023/07/06 04:53:01;;;;;;;48.42;29.85;;;;;;;;;;5054263;28;20015;-78
2023/07/06 04:55:28;;;;;;;41.22;28.08;;;;;;;;;;5053810;28;20420;-79
2023/07/06 04:57:57;;;;;;;45.47;28.45;;;;;;;;;;5054055;28;20074;-79
2023/07/06 05:00:28;;;;;;;42.00;28.27;;;;;;;;;;5042058;28;20513;-78
2023/07/06 05:03:00;;;;;;;49.92;29.27;;;;;;;;;;5044880;28;20021;-79
2023/07/06 05:05:32;;;;;;;40.72;29.17;;;;;;;;;;5054121;28;20032;-78
2023/07/06 05:07:59;;;;;;;42.72;29.35;;;;;;;;;;5053594;28;20375;-79
2023/07/06 05:10:25;;;;;;;40.17;28.92;;;;;;;;;;5054057;28;20059;-79
2023/07/06 05:13:01;;;;;;;44.38;28.35;;;;;;;;;;5053671;28;20055;-80
2023/07/06 05:15:27;;;;;;;41.13;28.48;;;;;;;;;;5052745;28;20478;-79
2023/07/06 05:17:53;;;;;;;39.72;27.52;;;;;;;;;;5052419;28;20084;-79
2023/07/06 05:20:20;;;;;;;40.28;28.23;;;;;;;;;;5053424;28;20082;-79
2023/07/06 05:22:48;;;;;;;44.03;26.90;;;;;;;;;;5052571;28;20075;-79
2023/07/06 05:25:15;;;;;;;41.03;26.95;;;;;;;;;;5053632;28;20091;-79
2023/07/06 05:27:41;;;;;;;39.55;26.80;;;;;;;;;;5052614;28;20366;-79
2023/07/06 05:30:08;;;;;;;42.10;26.35;;;;;;;;;;5053899;28;20013;-80
2023/07/06 05:32:34;;;;;;;39.92;25.95;;;;;;;;;;5053350;28;20020;-79
2023/07/06 05:35:01;;;;;;;43.15;25.13;;;;;;;;;;5052211;28;20159;-79
2023/07/06 05:37:27;;;;;;;43.05;25.45;;;;;;;;;;5037006;28;20030;-78
2023/07/06 05:39:53;;;;;;;37.95;24.88;;;;;;;;;;5049709;28;20508;-78
2023/07/06 05:42:20;;;;;;;46.28;25.17;;;;;;;;;;5040912;28;20040;-78
2023/07/06 05:44:46;;;;;;;38.33;24.15;;;;;;;;;;5037618;28;20088;-78
2023/07/06 05:47:12;;;;;;;40.53;24.92;;;;;;;;;;5039071;28;20047;-78
2023/07/06 05:49:39;;;;;;;45.13;24.73;;;;;;;;;;5052201;28;20075;-78
2023/07/06 05:52:05;;;;;;;34.92;23.92;;;;;;;;;;5052086;28;20027;-79
2023/07/06 05:54:32;;;;;;;39.00;23.42;;;;;;;;;;5052229;28;20067;-79
2023/07/06 05:57:02;;;;;;;32.55;22.48;;;;;;;;;;5053851;28;20037;-79
2023/07/06 05:59:29;;;;;;;35.28;22.58;;;;;;;;;;5055769;28;20036;-80
2023/07/06 06:01:55;;;;;;;37.63;21.38;;;;;;;;;;5055942;28;20353;-78
2023/07/06 06:04:21;;;;;;;34.80;21.85;;;;;;;;;;5057432;28;20074;-79
2023/07/06 06:06:54;;;;;;;41.00;22.27;;;;;;;;;;5055819;28;20609;-78
2023/07/06 06:09:20;;;;;;;32.17;20.75;;;;;;;;;;5057651;28;20028;-79
2023/07/06 06:11:48;;;;;;;35.88;21.27;;;;;;;;;;5056026;28;20020;-78
2023/07/06 06:14:14;;;;;;;37.90;21.40;;;;;;;;;;5057355;28;20505;-79
2023/07/06 06:16:40;;;;;;;37.65;21.30;;;;;;;;;;5055893;28;20025;-79
2023/07/06 06:19:07;;;;;;;34.70;22.13;;;;;;;;;;5056005;28;20021;-79
2023/07/06 06:21:34;;;;;;;34.92;23.35;;;;;;;;;;5057041;28;20021;-79
2023/07/06 06:24:08;;;;;;;37.03;22.55;;;;;;;;;;5055730;28;20017;-78
2023/07/06 06:26:34;;;;;;;37.17;21.42;;;;;;;;;;5055664;28;20021;-79
2023/07/06 06:29:01;;;;;;;39.30;21.73;;;;;;;;;;5056721;28;20029;-78
2023/07/06 06:31:27;;;;;;;36.65;21.25;;;;;;;;;;5055578;28;20531;-79
2023/07/06 06:33:53;;;;;;;34.33;21.45;;;;;;;;;;5056806;28;20024;-79
2023/07/06 06:36:20;;;;;;;30.17;19.75;;;;;;;;;;5049207;28;20090;-79
2023/07/06 06:38:46;;;;;;;31.65;20.50;;;;;;;;;;5052706;28;20024;-78
2023/07/06 06:41:13;;;;;;;36.72;19.70;;;;;;;;;;5042064;28;20482;-79
2023/07/06 06:43:39;;;;;;;29.45;19.52;;;;;;;;;;5047106;28;20028;-78
2023/07/06 06:46:06;;;;;;;33.90;18.98;;;;;;;;;;5056677;28;20033;-79
2023/07/06 06:48:33;;;;;;;30.85;19.80;;;;;;;;;;5056387;28;20021;-79
2023/07/06 06:50:59;;;;;;;32.30;20.92;;;;;;;;;;5056900;28;20029;-79
2023/07/06 06:53:26;;;;;;;31.63;19.20;;;;;;;;;;5056663;28;20021;-80
2023/07/06 06:55:53;;;;;;;28.92;19.42;;;;;;;;;;5054903;28;20029;-78
2023/07/06 06:58:20;;;;;;;35.88;21.38;;;;;;;;;;5056313;28;20016;-78
2023/07/06 07:00:47;;;;;;;34.10;20.25;;;;;;;;;;5056614;28;20340;-78
2023/07/06 07:03:14;;;;;;;32.17;19.90;;;;;;;;;;5056172;28;20032;-79
2023/07/06 07:05:40;;;;;;;34.60;21.38;;;;;;;;;;5056304;28;20079;-79
2023/07/06 07:08:07;;;;;;;29.90;20.75;;;;;;;;;;5056011;28;20082;-79
2023/07/06 07:10:33;;;;;;;28.00;20.05;;;;;;;;;;5056141;28;20488;-79
2023/07/06 07:12:59;;;;;;;30.25;20.08;;;;;;;;;;5054884;28;20386;-78
2023/07/06 07:15:26;;;;;;;30.73;21.83;;;;;;;;;;5055521;28;20366;-79
2023/07/06 07:17:55;;;;;;;32.17;21.15;;;;;;;;;;5056151;28;20021;-79
2023/07/06 07:20:21;;;;;;;28.98;19.15;;;;;;;;;;5055932;28;20079;-79
2023/07/06 07:22:47;;;;;;;34.88;20.77;;;;;;;;;;5055460;28;20098;-79
2023/07/06 07:25:17;;;;;;;30.58;19.52;;;;;;;;;;5056362;28;20032;-79
2023/07/06 07:27:43;;;;;;;28.23;18.08;;;;;;;;;;5051985;28;20104;-79
2023/07/06 07:30:11;;;;;;;24.70;17.65;;;;;;;;;;5036410;28;20100;-79
2023/07/06 07:32:38;;;;;;;30.50;17.83;;;;;;;;;;5054507;28;20017;-78
2023/07/06 07:35:04;;;;;;;31.48;17.95;;;;;;;;;;5054242;28;20111;-80
2023/07/06 07:37:30;;;;;;;26.70;16.05;;;;;;;;;;5053775;28;20025;-79
2023/07/06 07:39:57;;;;;;;24.67;15.48;;;;;;;;;;5054292;28;20025;-80
2023/07/06 07:42:25;;;;;;;19.55;12.25;;;;;;;;;;5039982;28;20018;-80
2023/07/06 07:44:51;;;;;;;18.45;11.95;;;;;;;;;;5042233;28;20040;-79
2023/07/06 07:49:17;;;;;;;18.17;11.50;;;;;;;;;;5111831;27;20418;-78
2023/07/06 07:51:43;;;;;;;16.67;11.18;;;;;;;;;;5110203;28;20031;-80
2023/07/06 07:54:10;;;;;;;18.02;10.27;;;;;;;;;;5110433;28;20028;-80
2023/07/06 07:56:36;;;;;;;19.75;10.70;;;;;;;;;;5110351;28;20019;-79
2023/07/06 07:59:02;;;;;;;19.27;10.93;;;;;;;;;;5111508;28;20077;-79
2023/07/06 08:01:28;;;;;;;20.67;11.15;;;;;;;;;;5110099;28;20407;-79
2023/07/06 08:03:54;;;;;;;15.70;9.80;;;;;;;;;;5111433;28;20403;-80
2023/07/06 08:06:22;;;;;;;19.77;10.63;;;;;;;;;;5110078;28;20012;-79
2023/07/06 08:08:48;;;;;;;18.15;9.55;;;;;;;;;;5111106;28;20462;-79
2023/07/06 08:11:15;;;;;;;16.25;10.63;;;;;;;;;;5109870;28;20114;-80
2023/07/06 08:13:45;;;;;;;24.42;11.43;;;;;;;;;;5111338;28;20047;-79
2023/07/06 08:16:12;;;;;;;17.55;10.80;;;;;;;;;;5110885;28;20099;-79
2023/07/06 08:18:40;;;;;;;16.67;11.05;;;;;;;;;;5109690;28;20115;-80
2023/07/06 08:21:08;;;;;;;16.88;11.27;;;;;;;;;;5109870;28;20027;-79
2023/07/06 08:23:35;;;;;;;15.88;11.00;;;;;;;;;;5109725;28;20408;-79
2023/07/06 08:26:04;;;;;;;19.75;12.43;;;;;;;;;;5110963;28;20018;-81
2023/07/06 08:28:31;;;;;;;17.13;10.48;;;;;;;;;;5110950;28;20158;-79
2023/07/06 08:31:03;;;;;;;16.85;10.80;;;;;;;;;;5110995;28;20107;-78
2023/07/06 08:33:34;;;;;;;16.50;9.40;;;;;;;;;;5109638;28;20365;-79
2023/07/06 08:36:01;;;;;;;17.13;10.10;;;;;;;;;;5110805;28;20016;-80
2023/07/06 08:38:27;;;;;;;15.45;9.82;;;;;;;;;;5109576;28;20032;-80
2023/07/06 08:40:54;;;;;;;16.20;9.73;;;;;;;;;;5109272;28;20366;-81
2023/07/06 08:43:25;;;;;;;19.05;9.20;;;;;;;;;;5110974;28;20446;-80
2023/07/06 08:45:58;;;;;;;16.30;10.02;;;;;;;;;;5109447;28;20016;-81
2023/07/06 08:48:28;;;;;;;20.45;9.88;;;;;;;;;;5110480;28;20044;-82
2023/07/06 08:50:56;;;;;;;17.00;9.98;;;;;;;;;;5110744;28;20024;-81
2023/07/06 08:53:27;;;;;;;18.02;9.20;;;;;;;;;;5110353;28;20023;-81
2023/07/06 08:55:54;;;;;;;15.17;8.50;;;;;;;;;;5109244;28;20033;-82
2023/07/06 08:58:30;;;;;;;16.48;9.30;;;;;;;;;;5110034;28;20020;-81
2023/07/06 09:01:16;;;;;;;12.35;7.78;;;;;;;;;;5096159;28;20024;-80
2023/07/06 09:03:46;;;;;;;14.60;8.05;;;;;;;;;;5095264;28;20028;-79
2023/07/06 09:06:13;;;;;;;12.65;8.13;;;;;;;;;;5095453;28;20513;-80
2023/07/06 09:08:41;;;;;;;17.92;7.82;;;;;;;;;;5095023;28;20028;-81
2023/07/06 09:11:08;;;;;;;14.27;7.45;;;;;;;;;;5096964;28;20024;-81
2023/07/06 09:13:43;;;;;;;11.35;7.32;;;;;;;;;;5095395;28;20350;-80
2023/07/06 09:16:10;;;;;;;13.23;8.25;;;;;;;;;;5095150;28;20028;-80
2023/07/06 09:18:36;;;;;;;14.77;7.45;;;;;;;;;;5096506;28;20561;-81
2023/07/06 09:21:03;;;;;;;12.38;8.02;;;;;;;;;;5095138;28;20442;-80
2023/07/06 09:23:31;;;;;;;13.38;7.55;;;;;;;;;;5096223;28;20450;-81
2023/07/06 09:25:57;;;;;;;13.55;8.18;;;;;;;;;;5096547;28;20370;-80
2023/07/06 09:28:29;;;;;;;13.18;7.53;;;;;;;;;;5095822;28;20085;-81
2023/07/06 09:31:09;;;;;;;11.27;7.85;;;;;;;;;;5096025;28;20418;-79
2023/07/06 09:33:42;;;;;;;13.60;8.55;;;;;;;;;;5095877;28;20012;-80
2023/07/06 09:36:13;;;;;;;14.20;7.95;;;;;;;;;;5094565;28;20507;-80
2023/07/06 09:38:43;;;;;;;12.70;7.40;;;;;;;;;;5095028;28;20024;-80
2023/07/06 09:41:23;;;;;;;14.23;7.18;;;;;;;;;;5096334;28;20027;-79
2023/07/06 09:43:52;;;;;;;13.10;7.75;;;;;;;;;;5094419;28;20020;-81
2023/07/06 09:46:18;;;;;;;16.73;7.82;;;;;;;;;;5094599;28;20027;-81
2023/07/06 09:48:45;;;;;;;13.43;7.10;;;;;;;;;;5095307;28;20535;-79
2023/07/06 09:51:36;;;;;;;10.77;6.53;;;;;;;;;;5095923;28;20328;-81
2023/07/06 09:54:15;;;;;;;13.70;8.20;;;;;;;;;;5088449;28;20078;-80
2023/07/06 09:56:42;;;;;;;10.45;7.18;;;;;;;;;;5095395;28;20016;-80
2023/07/06 09:59:09;;;;;;;10.88;6.90;;;;;;;;;;5094264;28;20042;-80
2023/07/06 10:01:42;;;;;;;13.95;7.40;;;;;;;;;;5095278;28;20016;-80
2023/07/06 10:04:08;;;;;;;9.45;6.47;;;;;;;;;;5095103;28;20024;-79
2023/07/06 10:06:53;;;;;;;10.18;6.47;;;;;;;;;;5095667;28;20020;-80
2023/07/06 10:09:21;;;;;;;11.45;7.18;;;;;;;;;;5094276;28;20024;-80
2023/07/06 10:11:53;;;;;;;12.80;7.22;;;;;;;;;;5092915;28;20035;-80
2023/07/06 10:14:38;;;;;;;9.95;6.63;;;;;;;;;;5093950;28;20044;-80
2023/07/06 10:17:13;;;;;;;9.05;6.30;;;;;;;;;;5094024;28;20411;-80
2023/07/06 10:20:00;;;;;;;14.68;6.50;;;;;;;;;;5095042;28;20020;-80
2023/07/06 10:22:45;;;;;;;9.32;5.75;;;;;;;;;;5090015;28;20020;-79
2023/07/06 10:25:11;;;;;;;10.10;6.57;;;;;;;;;;5093454;28;20340;-80
2023/07/06 10:27:42;;;;;;;11.05;6.10;;;;;;;;;;5093301;28;20531;-82
2023/07/06 10:30:12;;;;;;;13.45;6.57;;;;;;;;;;5093563;28;20032;-79
2023/07/06 10:32:40;;;;;;;12.20;6.50;;;;;;;;;;5093363;28;20045;-81
2023/07/06 10:35:06;;;;;;;10.40;6.38;;;;;;;;;;5094745;28;20016;-79
2023/07/06 10:37:35;;;;;;;12.48;6.05;;;;;;;;;;5094576;28;20023;-80
2023/07/06 10:40:12;;;;;;;8.48;6.10;;;;;;;;;;5094478;28;20019;-79
2023/07/06 10:42:42;;;;;;;14.55;6.25;;;;;;;;;;5092450;28;20024;-79
2023/07/06 10:45:22;;;;;;;10.52;5.68;;;;;;;;;;5089676;28;20016;-79
2023/07/06 10:47:49;;;;;;;15.02;5.65;;;;;;;;;;5092792;28;20553;-80
2023/07/06 10:50:23;;;;;;;12.70;5.70;;;;;;;;;;5093140;28;20055;-80
2023/07/06 10:52:57;;;;;;;9.38;5.90;;;;;;;;;;5093096;28;20107;-80
2023/07/06 10:55:24;;;;;;;9.95;5.82;;;;;;;;;;5093125;28;20454;-79
2023/07/06 10:57:54;;;;;;;9.23;5.97;;;;;;;;;;5094121;28;20024;-80
2023/07/06 11:00:23;;;;;;;14.73;5.47;;;;;;;;;;5093034;28;20042;-80
2023/07/06 11:02:54;;;;;;;11.32;6.13;;;;;;;;;;5093013;28;20019;-79
2023/07/06 11:05:20;;;;;;;;;;;;;;;;;;5094515;28;20024;-79
2023/07/06 11:07:49;;;;;;;10.20;5.60;;;;;;;;;;5092572;28;20299;-80
2023/07/06 11:10:23;;;;;;;10.68;5.60;;;;;;;;;;5078455;28;20020;-81
2023/07/06 11:12:58;;;;;;;12.05;5.28;;;;;;;;;;5098753;28;20409;-80
2023/07/06 11:15:26;;;;;;;11.45;5.85;;;;;;;;;;5083016;28;20076;-80
2023/07/06 11:17:53;;;;;;;9.07;5.60;;;;;;;;;;5092662;28;20056;-80
2023/07/06 11:20:22;;;;;;;10.70;5.35;;;;;;;;;;5092590;28;20047;-80
2023/07/06 11:22:51;;;;;;;12.77;5.95;;;;;;;;;;5092650;28;20024;-79
2023/07/06 11:28:41;;;;;;;13.30;6.53;;;;;;;;;;5070499;28;20938;-79
2023/07/06 11:31:30;;;;;;;10.95;5.40;;;;;;;;;;5069615;28;20471;-80
2023/07/06 11:34:08;;;;;;;9.85;6.22;;;;;;;;;;5060653;28;20028;-79
2023/07/06 11:36:40;;;;;;;13.90;5.38;;;;;;;;;;5061926;28;20029;-79
2023/07/06 11:39:06;;;;;;;11.43;5.80;;;;;;;;;;5069560;28;20120;-80
2023/07/06 11:41:41;;;;;;;8.38;5.25;;;;;;;;;;5069189;28;20032;-80
2023/07/06 11:44:13;;;;;;;9.27;5.78;;;;;;;;;;5069386;28;20028;-80
2023/07/06 11:46:46;;;;;;;13.45;5.82;;;;;;;;;;5070655;28;20107;-80
2023/07/06 11:49:12;;;;;;;10.15;5.57;;;;;;;;;;5069078;28;20142;-80
2023/07/06 11:51:38;;;;;;;14.18;6.00;;;;;;;;;;5070093;28;20363;-80
2023/07/06 11:54:07;;;;;;;10.40;5.80;;;;;;;;;;5064290;28;20014;-80
2023/07/06 11:56:50;;;;;;;12.82;6.28;;;;;;;;;;5052308;28;20497;-81
2023/07/06 11:59:36;;;;;;;17.00;6.95;;;;;;;;;;5070629;28;20029;-80
2023/07/06 12:02:07;;;;;;;10.63;5.95;;;;;;;;;;5069066;28;20103;-80
2023/07/06 12:04:34;;;;;;;8.32;5.45;;;;;;;;;;5069097;28;20048;-81
2023/07/06 12:07:09;;;;;;;11.18;5.72;;;;;;;;;;5068685;28;20025;-81
2023/07/06 12:09:37;;;;;;;11.93;5.90;;;;;;;;;;5070033;28;20031;-80
2023/07/06 12:12:06;;;;;;;7.93;5.20;;;;;;;;;;5068802;28;20464;-80
2023/07/06 12:14:34;;;;;;;9.70;6.20;;;;;;;;;;5069978;28;20040;-80
2023/07/06 12:17:01;;;;;;;8.18;4.90;;;;;;;;;;5068419;28;20025;-81
2023/07/06 12:19:28;;;;;;;9.05;4.97;;;;;;;;;;5068556;28;20020;-81
2023/07/06 12:21:55;;;;;;;6.65;4.97;;;;;;;;;;5068261;28;20065;-81
2023/07/06 12:24:26;;;;;;;14.73;5.95;;;;;;;;;;5069709;28;20028;-81
2023/07/06 12:26:52;;;;;;;15.45;5.65;;;;;;;;;;5067919;28;20052;-80
2023/07/06 12:29:19;;;;;;;9.57;5.70;;;;;;;;;;5068536;28;20078;-81
2023/07/06 12:31:47;;;;;;;7.18;5.00;;;;;;;;;;5068169;28;20056;-80
2023/07/06 12:34:17;;;;;;;9.25;5.43;;;;;;;;;;5068435;28;20490;-81
2023/07/06 12:36:44;;;;;;;10.23;5.45;;;;;;;;;;5057802;28;20025;-82
2023/07/06 12:39:15;;;;;;;10.63;4.90;;;;;;;;;;5049210;28;20021;-81
2023/07/06 12:41:41;;;;;;;8.95;4.53;;;;;;;;;;5056321;28;20025;-80
2023/07/06 12:44:17;;;;;;;6.40;4.80;;;;;;;;;;5056106;28;20055;-81
2023/07/06 12:46:47;;;;;;;13.48;4.57;;;;;;;;;;5050165;28;20471;-80
2023/07/06 12:49:20;;;;;;;6.83;4.80;;;;;;;;;;5028024;28;20025;-80
2023/07/06 12:51:47;;;;;;;8.68;5.05;;;;;;;;;;5040258;28;20265;-81
2023/07/06 12:54:13;;;;;;;7.60;4.78;;;;;;;;;;5053651;28;20053;-80
2023/07/06 12:56:40;;;;;;;7.80;4.85;;;;;;;;;;5035350;28;20048;-82
2023/07/06 12:59:06;;;;;;;15.13;5.32;;;;;;;;;;5033444;28;20017;-81
2023/07/06 13:01:35;;;;;;;6.95;4.70;;;;;;;;;;5043498;28;20028;-81
2023/07/06 13:04:11;;;;;;;10.27;5.38;;;;;;;;;;5052215;28;20032;-81
2023/07/06 13:06:44;;;;;;;12.18;5.60;;;;;;;;;;5036309;28;20032;-82
2023/07/06 13:09:15;;;;;;;11.90;4.90;;;;;;;;;;5037536;28;20116;-81
2023/07/06 13:11:45;;;;;;;22.83;5.50;;;;;;;;;;5055026;28;20016;-82
2023/07/06 13:14:15;;;;;;;9.15;4.60;;;;;;;;;;5054820;28;20017;-82
2023/07/06 13:16:42;;;;;;;9.00;4.45;;;;;;;;;;5054042;28;20052;-81
2023/07/06 13:19:12;;;;;;;8.55;4.70;;;;;;;;;;5053178;28;20507;-82
2023/07/06 13:21:40;;;;;;;12.57;5.00;;;;;;;;;;5053873;28;20025;-81
2023/07/06 13:24:10;;;;;;;10.75;5.50;;;;;;;;;;5054202;28;20471;-82
2023/07/06 13:26:36;;;;;;;13.98;5.40;;;;;;;;;;5055273;28;20462;-80
2023/07/06 13:29:02;;;;;;;10.27;5.63;;;;;;;;;;5055834;28;20021;-81
2023/07/06 13:31:28;;;;;;;8.02;5.38;;;;;;;;;;5055163;28;20023;-81
2023/07/06 13:33:56;;;;;;;13.57;6.22;;;;;;;;;;5054208;28;20017;-82
2023/07/06 13:36:24;;;;;;;8.88;5.20;;;;;;;;;;5047754;28;20013;-81
2023/07/06 13:38:50;;;;;;;18.63;5.35;;;;;;;;;;5049167;28;20024;-82
2023/07/06 13:41:18;;;;;;;8.60;5.13;;;;;;;;;;5048567;28;20084;-82
2023/07/06 13:43:46;;;;;;;9.93;5.20;;;;;;;;;;5035285;28;20059;-81
2023/07/06 13:46:12;;;;;;;11.57;4.93;;;;;;;;;;5042263;28;20021;-81
2023/07/06 13:48:39;;;;;;;9.13;5.10;;;;;;;;;;5043107;28;20040;-81
2023/07/06 13:51:05;;;;;;;10.45;5.13;;;;;;;;;;5053846;28;20363;-82
2023/07/06 13:53:33;;;;;;;8.20;5.03;;;;;;;;;;5053946;28;20021;-79
2023/07/06 13:55:59;;;;;;;9.48;5.40;;;;;;;;;;5055150;28;20020;-81
2023/07/06 13:58:28;;;;;;;7.63;5.00;;;;;;;;;;5053615;28;20344;-81
2023/07/06 14:00:55;;;;;;;9.32;4.93;;;;;;;;;;5051078;28;20021;-81